createdAt,value
2018-11-07T00:01:47.176Z,100.00
2018-11-07T00:04:15.477Z,100.00
2018-11-07T00:06:43.753Z,100.00
2018-11-07T00:09:12.039Z,100.00
2018-11-07T00:11:40.302Z,100.00
2018-11-07T00:14:09.151Z,100.00
2018-11-07T00:16:37.465Z,100.00
2018-11-07T00:19:05.849Z,100.00
2018-11-07T00:21:34.172Z,100.00
2018-11-07T00:24:02.508Z,100.00
2018-11-07T00:26:30.894Z,100.00
2018-11-07T00:28:59.212Z,100.00
2018-11-07T00:31:27.541Z,100.00
2018-11-07T00:33:55.901Z,100.00
2018-11-07T00:36:24.247Z,100.00
2018-11-07T00:38:52.607Z,100.00
2018-11-07T00:41:20.933Z,100.00
2018-11-07T00:43:49.268Z,100.00
2018-11-07T00:46:17.585Z,100.00
2018-11-07T00:48:45.901Z,100.00
2018-11-07T00:51:14.253Z,100.00
2018-11-07T00:53:42.576Z,100.00
2018-11-07T00:56:10.960Z,100.00
2018-11-07T00:58:39.310Z,100.00
2018-11-07T01:01:07.669Z,100.00
2018-11-07T01:03:36.002Z,100.00
2018-11-07T01:06:04.437Z,100.00
2018-11-07T01:08:32.753Z,100.00
2018-11-07T01:11:01.099Z,100.00
2018-11-07T01:13:29.464Z,100.00
2018-11-07T01:15:57.804Z,100.00
2018-11-07T01:18:26.117Z,100.00
2018-11-07T01:20:54.445Z,100.00
2018-11-07T01:23:22.761Z,100.00
2018-11-07T01:25:51.115Z,100.00
2018-11-07T01:28:19.521Z,100.00
2018-11-07T01:30:47.854Z,100.00
2018-11-07T01:33:16.174Z,100.00
2018-11-07T01:35:44.535Z,100.00
2018-11-07T01:38:12.862Z,100.00
2018-11-07T01:40:41.242Z,100.00
2018-11-07T01:43:09.573Z,100.00
2018-11-07T01:45:37.911Z,100.00
2018-11-07T01:48:06.276Z,100.00
2018-11-07T01:50:34.688Z,100.00
2018-11-07T01:53:03.017Z,100.00
2018-11-07T01:55:31.412Z,100.00
2018-11-07T02:04:54.278Z,100.00
2018-11-07T02:07:22.567Z,100.00
2018-11-07T02:09:50.831Z,100.00
2018-11-07T02:12:19.161Z,100.00
2018-11-07T02:14:47.476Z,100.00
2018-11-07T02:17:15.784Z,100.00
2018-11-07T02:19:44.072Z,100.00
2018-11-07T02:22:12.337Z,100.00
2018-11-07T02:24:40.690Z,100.00
2018-11-07T02:27:08.951Z,100.00
2018-11-07T02:29:37.283Z,100.00
2018-11-07T02:32:05.611Z,100.00
2018-11-07T02:34:34.001Z,100.00
2018-11-07T02:37:02.374Z,100.00
2018-11-07T02:39:30.661Z,100.00
2018-11-07T02:41:59.053Z,100.00
2018-11-07T02:44:27.286Z,100.00
2018-11-07T02:46:55.680Z,100.00
2018-11-07T02:49:23.989Z,100.00
2018-11-07T02:51:52.306Z,100.00
2018-11-07T02:54:20.623Z,100.00
2018-11-07T02:56:48.951Z,100.00
2018-11-07T02:59:17.286Z,100.00
2018-11-07T03:01:45.588Z,100.00
2018-11-07T03:04:15.750Z,100.00
2018-11-07T03:06:45.307Z,100.00
2018-11-07T03:09:14.926Z,100.00
2018-11-07T03:11:43.232Z,100.00
2018-11-07T03:14:11.576Z,100.00
2018-11-07T03:16:39.854Z,100.00
2018-11-07T03:19:08.228Z,100.00
2018-11-07T03:21:36.660Z,100.00
2018-11-07T03:24:05.062Z,100.00
2018-11-07T03:26:33.348Z,100.00
2018-11-07T03:29:01.857Z,100.00
2018-11-07T03:31:30.324Z,100.00
2018-11-07T03:33:58.839Z,100.00
2018-11-07T03:36:27.196Z,100.00
2018-11-07T03:38:55.518Z,100.00
2018-11-07T03:41:23.850Z,100.00
2018-11-07T03:43:52.192Z,100.00
2018-11-07T03:46:20.748Z,100.00
2018-11-07T03:48:49.336Z,100.00
2018-11-07T03:51:18.006Z,100.00
2018-11-07T03:53:46.345Z,100.00
2018-11-07T03:56:14.670Z,100.00
2018-11-07T03:58:42.979Z,100.00
2018-11-07T04:01:11.296Z,100.00
2018-11-07T04:03:39.667Z,100.00
2018-11-07T04:06:08.137Z,100.00
2018-11-07T04:08:36.410Z,100.00
2018-11-07T04:11:05.152Z,100.00
2018-11-07T04:13:33.499Z,100.00
2018-11-07T04:16:01.885Z,100.00
2018-11-07T04:18:30.168Z,100.00
2018-11-07T04:20:58.496Z,100.00
2018-11-07T04:23:26.775Z,100.00
2018-11-07T04:25:55.090Z,100.00
2018-11-07T04:28:23.385Z,100.00
2018-11-07T04:30:51.690Z,100.00
2018-11-07T04:33:19.976Z,100.00
2018-11-07T04:35:48.513Z,100.00
2018-11-07T04:38:16.826Z,100.00
2018-11-07T04:40:45.167Z,99.90
2018-11-07T04:43:13.499Z,100.00
2018-11-07T04:45:41.830Z,100.00
2018-11-07T04:48:10.140Z,100.00
2018-11-07T04:50:45.489Z,100.00
2018-11-07T04:53:15.000Z,100.00
2018-11-07T04:55:43.338Z,100.00
2018-11-07T04:58:11.633Z,100.00
2018-11-07T05:00:39.967Z,100.00
2018-11-07T05:03:08.254Z,100.00
2018-11-07T05:05:36.576Z,100.00
2018-11-07T05:08:04.934Z,100.00
2018-11-07T05:10:33.252Z,100.00
2018-11-07T05:13:01.560Z,100.00
2018-11-07T05:15:29.897Z,100.00
2018-11-07T05:17:58.253Z,100.00
2018-11-07T05:20:26.789Z,100.00
2018-11-07T05:22:55.091Z,100.00
2018-11-07T05:25:23.388Z,100.00
2018-11-07T05:27:51.658Z,100.00
2018-11-07T05:30:19.955Z,100.00
2018-11-07T05:32:48.247Z,100.00
2018-11-07T05:35:16.620Z,100.00
2018-11-07T05:37:44.921Z,100.00
2018-11-07T05:40:14.411Z,100.00
2018-11-07T05:42:42.763Z,100.00
2018-11-07T05:45:11.508Z,100.00
2018-11-07T05:47:39.991Z,100.00
2018-11-07T05:50:09.102Z,100.00
2018-11-07T05:52:37.875Z,100.00
2018-11-07T05:55:06.768Z,100.00
2018-11-07T05:57:35.867Z,100.00
2018-11-07T06:00:04.754Z,100.00
2018-11-07T06:02:33.100Z,100.00
2018-11-07T06:05:01.405Z,100.00
2018-11-07T06:07:34.688Z,100.00
2018-11-07T06:10:03.090Z,100.00
2018-11-07T06:12:31.466Z,100.00
2018-11-07T06:14:59.767Z,100.00
2018-11-07T06:17:28.180Z,100.00
2018-11-07T06:19:56.508Z,100.00
2018-11-07T06:22:24.869Z,100.00
2018-11-07T06:24:53.232Z,100.00
2018-11-07T06:27:21.747Z,100.00
2018-11-07T06:29:50.809Z,100.00
2018-11-07T06:32:19.170Z,100.00
2018-11-07T06:34:47.476Z,100.00
2018-11-07T06:37:15.891Z,100.00
2018-11-07T06:39:44.473Z,100.00
2018-11-07T06:42:12.827Z,100.00
2018-11-07T06:44:41.301Z,100.00
2018-11-07T06:47:10.122Z,100.00
2018-11-07T06:49:39.338Z,100.00
2018-11-07T06:52:07.666Z,100.00
2018-11-07T06:54:36.825Z,100.00
2018-11-07T06:57:05.707Z,100.00
2018-11-07T06:59:34.005Z,100.00
2018-11-07T07:02:02.447Z,100.00
2018-11-07T07:04:30.734Z,100.00
2018-11-07T07:06:59.489Z,100.00
2018-11-07T07:09:27.826Z,100.00
2018-11-07T07:11:56.302Z,100.00
2018-11-07T07:14:24.669Z,100.00
2018-11-07T07:16:53.241Z,100.00
2018-11-07T07:19:21.595Z,100.00
2018-11-07T07:21:51.208Z,100.00
2018-11-07T07:24:20.583Z,100.00
2018-11-07T07:26:49.971Z,100.00
2018-11-07T07:29:19.551Z,100.00
2018-11-07T07:31:49.694Z,100.00
2018-11-07T07:34:20.095Z,100.00
2018-11-07T07:36:48.844Z,100.00
2018-11-07T07:39:17.192Z,100.00
2018-11-07T07:41:46.357Z,100.00
2018-11-07T07:44:14.691Z,100.00
2018-11-07T07:46:42.968Z,100.00
2018-11-07T07:49:11.609Z,100.00
2018-11-07T07:51:40.161Z,100.00
2018-11-07T07:54:08.543Z,100.00
2018-11-07T07:56:36.965Z,100.00
2018-11-07T07:59:06.037Z,100.00
2018-11-07T08:01:34.339Z,100.00
2018-11-07T08:04:02.865Z,100.00
2018-11-07T08:06:34.212Z,100.00
2018-11-07T08:09:02.498Z,100.00
2018-11-07T08:11:30.850Z,100.00
2018-11-07T08:13:59.292Z,100.00
2018-11-07T08:16:27.688Z,100.00
2018-11-07T08:18:55.970Z,100.00
2018-11-07T08:21:24.426Z,100.00
2018-11-07T08:23:52.674Z,100.00
2018-11-07T08:26:21.122Z,100.00
2018-11-07T08:28:49.541Z,100.00
2018-11-07T08:31:18.788Z,100.00
2018-11-07T08:33:47.044Z,100.00
2018-11-07T08:36:15.425Z,100.00
2018-11-07T08:38:43.665Z,100.00
2018-11-07T08:41:11.973Z,100.00
2018-11-07T08:43:40.337Z,100.00
2018-11-07T08:46:08.600Z,100.00
2018-11-07T08:48:38.899Z,100.00
2018-11-07T08:51:07.169Z,100.00
2018-11-07T08:53:36.513Z,100.00
2018-11-07T08:56:05.151Z,100.00
2018-11-07T08:58:33.426Z,100.00
2018-11-07T09:01:01.769Z,100.00
2018-11-07T09:03:30.068Z,100.00
2018-11-07T09:05:58.410Z,100.00
2018-11-07T09:08:26.709Z,100.00
2018-11-07T09:10:55.047Z,100.00
2018-11-07T09:13:23.487Z,100.00
2018-11-07T09:15:51.721Z,100.00
2018-11-07T09:18:20.057Z,100.00
2018-11-07T09:20:48.288Z,100.00
2018-11-07T09:23:16.612Z,100.00
2018-11-07T09:25:45.190Z,100.00
2018-11-07T09:28:13.691Z,100.00
2018-11-07T09:30:42.001Z,100.00
2018-11-07T09:33:10.314Z,100.00
2018-11-07T09:35:38.610Z,100.00
2018-11-07T09:38:07.001Z,100.00
2018-11-07T09:40:35.224Z,100.00
2018-11-07T09:43:03.642Z,100.00
2018-11-07T09:45:31.873Z,100.00
2018-11-07T09:48:00.242Z,99.88
2018-11-07T09:50:28.590Z,99.37
2018-11-07T09:52:56.949Z,98.65
2018-11-07T09:55:25.177Z,98.26
2018-11-07T09:57:53.516Z,97.30
2018-11-07T10:00:22.565Z,97.77
2018-11-07T10:02:50.854Z,97.74
2018-11-07T10:05:20.601Z,97.39
2018-11-07T10:07:49.165Z,96.80
2018-11-07T10:10:18.991Z,96.01
2018-11-07T10:12:47.386Z,95.62
2018-11-07T10:15:15.747Z,95.54
2018-11-07T10:17:44.177Z,95.35
2018-11-07T10:20:15.353Z,94.01
2018-11-07T10:22:44.478Z,93.50
2018-11-07T10:25:13.254Z,92.75
2018-11-07T10:27:42.003Z,91.79
2018-11-07T10:30:12.465Z,90.71
2018-11-07T10:32:41.077Z,90.44
2018-11-07T10:35:09.901Z,90.03
2018-11-07T10:37:38.287Z,89.69
2018-11-07T10:40:08.881Z,89.10
2018-11-07T10:42:37.827Z,88.60
2018-11-07T10:45:06.834Z,88.11
2018-11-07T10:47:35.161Z,88.17
2018-11-07T10:50:06.365Z,86.85
2018-11-07T10:52:34.728Z,86.05
2018-11-07T10:55:02.941Z,85.87
2018-11-07T10:57:31.180Z,84.38
2018-11-07T10:59:59.521Z,82.03
2018-11-07T11:02:33.041Z,82.55
2018-11-07T11:05:01.558Z,80.07
2018-11-07T11:07:30.019Z,76.48
2018-11-07T11:09:58.334Z,76.29
2018-11-07T11:12:26.757Z,75.82
2018-11-07T11:14:55.097Z,78.32
2018-11-07T11:17:23.481Z,76.79
2018-11-07T11:19:51.703Z,75.50
2018-11-07T11:22:20.036Z,76.57
2018-11-07T11:24:48.296Z,77.51
2018-11-07T11:27:16.562Z,77.46
2018-11-07T11:29:44.946Z,76.50
2018-11-07T11:32:14.429Z,72.46
2018-11-07T11:34:43.066Z,73.01
2018-11-07T11:37:11.340Z,74.05
2018-11-07T11:39:39.827Z,73.35
2018-11-07T11:42:08.111Z,71.84
2018-11-07T11:44:36.389Z,73.10
2018-11-07T11:47:04.631Z,73.40
2018-11-07T11:49:34.103Z,73.96
2018-11-07T11:52:02.375Z,75.74
2018-11-07T11:54:31.669Z,75.60
2018-11-07T11:57:00.065Z,74.93
2018-11-07T11:59:28.545Z,75.14
2018-11-07T12:01:56.718Z,74.68
2018-11-07T12:04:25.837Z,74.70
2018-11-07T12:06:54.313Z,75.40
2018-11-07T12:09:23.661Z,74.38
2018-11-07T12:11:51.961Z,74.89
2018-11-07T12:14:20.212Z,74.53
2018-11-07T12:16:48.472Z,74.73
2018-11-07T12:19:16.729Z,74.07
2018-11-07T12:21:45.023Z,74.50
2018-11-07T12:24:13.283Z,74.78
2018-11-07T12:26:41.578Z,74.53
2018-11-07T12:29:09.954Z,73.48
2018-11-07T12:31:38.202Z,73.31
2018-11-07T12:34:06.469Z,74.09
2018-11-07T12:36:34.823Z,74.27
2018-11-07T12:39:09.962Z,74.81
2018-11-07T12:41:39.953Z,73.63
2018-11-07T12:44:08.681Z,73.23
2018-11-07T12:46:38.120Z,72.69
2018-11-07T12:49:06.458Z,72.64
2018-11-07T12:51:34.866Z,73.01
2018-11-07T12:54:03.827Z,72.78
2018-11-07T12:56:33.016Z,71.06
2018-11-07T12:59:01.455Z,71.97
2018-11-07T13:01:31.794Z,71.71
2018-11-07T13:04:00.178Z,69.53
2018-11-07T13:06:29.344Z,67.70
2018-11-07T13:09:00.226Z,68.45
2018-11-07T13:11:30.026Z,69.56
2018-11-07T13:13:59.501Z,70.10
2018-11-07T13:16:29.091Z,69.44
2018-11-07T13:18:59.692Z,68.83
2018-11-07T13:21:28.082Z,69.32
2018-11-07T13:23:56.440Z,69.67
2018-11-07T13:26:25.438Z,71.24
2018-11-07T13:28:53.921Z,71.99
2018-11-07T13:31:23.395Z,71.60
2018-11-07T13:33:51.662Z,70.71
2018-11-07T13:36:20.213Z,69.71
2018-11-07T13:38:48.852Z,68.04
2018-11-07T13:41:17.665Z,68.64
2018-11-07T13:46:40.903Z,69.50
2018-11-07T13:49:09.361Z,71.93
2018-11-07T13:51:37.985Z,73.96
2018-11-07T13:54:06.357Z,74.57
2018-11-07T13:56:34.970Z,76.91
2018-11-07T13:59:03.289Z,76.54
2018-11-07T14:01:31.686Z,75.84
2018-11-07T14:04:02.189Z,75.47
2018-11-07T14:06:30.847Z,75.10
2018-11-07T14:09:01.027Z,75.64
2018-11-07T14:11:30.466Z,76.45
2018-11-07T14:13:58.863Z,76.64
2018-11-07T14:16:27.947Z,78.27
2018-11-07T14:18:56.387Z,78.95
2018-11-07T14:21:24.732Z,78.74
2018-11-07T14:23:53.045Z,78.55
2018-11-07T14:29:04.920Z,78.56
2018-11-07T14:31:33.261Z,78.55
2018-11-07T14:34:01.571Z,78.87
2018-11-07T14:36:29.999Z,79.38
2018-11-07T14:38:58.340Z,80.23
2018-11-07T14:41:26.642Z,80.96
2018-11-07T14:43:56.039Z,80.72
2018-11-07T14:46:24.375Z,80.73
2018-11-07T14:48:53.950Z,81.51
2018-11-07T14:51:22.471Z,81.67
2018-11-07T14:53:50.811Z,82.20
2018-11-07T14:56:19.210Z,83.17
2018-11-07T14:58:47.537Z,82.87
2018-11-07T15:10:07.523Z,84.97
2018-11-07T15:12:35.966Z,85.48
2018-11-07T15:15:04.791Z,86.44
2018-11-07T15:17:33.420Z,86.72
2018-11-07T15:20:02.055Z,87.45
2018-11-07T15:22:30.741Z,88.23
2018-11-07T15:24:59.301Z,88.08
2018-11-07T15:27:28.013Z,89.08
2018-11-07T15:29:56.587Z,89.08
2018-11-07T15:32:25.061Z,89.25
2018-11-07T15:34:53.563Z,89.56
2018-11-07T15:37:21.886Z,89.18
2018-11-07T15:39:50.323Z,89.25
2018-11-07T15:42:18.921Z,89.51
2018-11-07T15:44:47.239Z,90.46
2018-11-07T15:47:15.538Z,90.04
2018-11-07T15:49:47.983Z,90.58
2018-11-07T15:52:16.301Z,90.41
2018-11-07T15:54:44.628Z,91.15
2018-11-07T15:57:12.904Z,91.15
2018-11-07T15:59:41.237Z,91.50
2018-11-07T16:02:09.561Z,90.50
2018-11-07T16:04:37.906Z,91.86
2018-11-07T16:07:06.194Z,92.03
2018-11-07T16:09:34.490Z,92.26
2018-11-07T16:12:02.835Z,91.80
2018-11-07T16:14:31.328Z,92.31
2018-11-07T16:16:59.785Z,92.38
2018-11-07T16:19:28.115Z,91.90
2018-11-07T16:21:56.520Z,92.20
2018-11-07T16:24:25.192Z,92.05
2018-11-07T16:26:53.688Z,91.94
2018-11-07T16:29:21.993Z,92.96
2018-11-07T16:31:50.379Z,92.39
2018-11-07T16:34:18.638Z,92.60
2018-11-07T16:36:46.985Z,92.74
2018-11-07T16:39:15.323Z,92.81
2018-11-07T16:41:43.872Z,92.96
2018-11-07T16:44:12.052Z,92.25
2018-11-07T16:46:40.360Z,92.44
2018-11-07T16:49:08.695Z,92.76
2018-11-07T16:51:37.122Z,93.13
2018-11-07T16:54:07.371Z,93.61
2018-11-07T16:56:35.774Z,93.62
2018-11-07T16:59:04.158Z,93.46
2018-11-07T17:01:32.937Z,94.07
2018-11-07T17:04:01.466Z,93.42
2018-11-07T17:06:30.112Z,93.29
2018-11-07T17:08:58.420Z,93.05
2018-11-07T17:11:26.723Z,93.41
2018-11-07T17:13:55.057Z,93.32
2018-11-07T17:16:23.432Z,93.43
2018-11-07T17:18:51.895Z,93.58
2018-11-07T17:21:20.210Z,93.82
2018-11-07T17:23:48.606Z,93.90
2018-11-07T17:26:16.897Z,93.78
2018-11-07T17:28:45.307Z,94.53
2018-11-07T17:31:13.882Z,93.90
2018-11-07T17:33:42.218Z,94.12
2018-11-07T17:36:10.504Z,93.71
2018-11-07T17:38:38.871Z,94.21
2018-11-07T17:41:07.186Z,93.32
2018-11-07T17:43:35.470Z,93.50
2018-11-07T17:46:03.950Z,93.80
2018-11-07T17:48:32.384Z,94.43
2018-11-07T17:51:00.611Z,94.69
2018-11-07T17:53:28.963Z,93.94
2018-11-07T17:55:57.263Z,94.59
2018-11-07T17:58:25.620Z,94.43
2018-11-07T18:00:53.950Z,94.45
2018-11-07T18:03:22.382Z,93.86
2018-11-07T18:05:50.705Z,94.99
2018-11-07T18:08:19.029Z,94.41
2018-11-07T18:10:47.515Z,94.42
2018-11-07T18:13:15.986Z,94.58
2018-11-07T18:15:44.338Z,94.64
2018-11-07T18:18:12.665Z,94.41
2018-11-07T18:20:41.491Z,94.85
2018-11-07T18:23:09.814Z,93.93
2018-11-07T18:25:38.113Z,94.71
2018-11-07T18:28:06.545Z,94.75
2018-11-07T18:30:35.339Z,95.01
2018-11-07T18:33:03.615Z,94.79
2018-11-07T18:35:32.257Z,94.41
2018-11-07T18:38:02.051Z,95.11
2018-11-07T18:40:30.601Z,93.23
2018-11-07T18:42:59.264Z,93.33
2018-11-07T18:45:30.409Z,93.51
2018-11-07T18:47:59.760Z,94.44
2018-11-07T18:50:28.201Z,93.68
2018-11-07T18:52:56.659Z,94.58
2018-11-07T18:55:24.944Z,93.85
2018-11-07T18:57:53.391Z,94.22
2018-11-07T19:00:21.728Z,94.38
2018-11-07T19:02:51.251Z,94.07
2018-11-07T19:05:19.905Z,94.13
2018-11-07T19:07:48.573Z,94.79
2018-11-07T19:10:18.665Z,94.25
2018-11-07T19:12:47.722Z,94.21
2018-11-07T19:15:16.645Z,94.13
2018-11-07T19:17:46.479Z,94.37
2018-11-07T19:20:16.206Z,94.71
2018-11-07T19:22:45.070Z,94.23
2018-11-07T19:25:17.446Z,95.58
2018-11-07T19:27:47.563Z,95.43
2018-11-07T19:30:18.402Z,95.65
2018-11-07T19:32:49.160Z,95.01
2018-11-07T19:35:51.006Z,94.81
2018-11-07T19:38:19.759Z,94.70
2018-11-07T19:40:48.103Z,94.97
2018-11-07T19:43:16.444Z,96.33
2018-11-07T19:45:45.454Z,96.16
2018-11-07T19:48:13.779Z,95.51
2018-11-07T19:50:42.058Z,96.16
2018-11-07T19:53:11.371Z,95.91
2018-11-07T19:55:39.657Z,96.05
2018-11-07T19:58:09.224Z,96.21
2018-11-07T20:03:52.813Z,95.20
2018-11-07T20:06:21.542Z,94.69
2018-11-07T20:08:49.964Z,95.38
2018-11-07T20:11:18.926Z,95.93
2018-11-07T20:13:47.290Z,95.64
2018-11-07T20:16:15.702Z,96.93
2018-11-07T20:18:44.024Z,97.21
2018-11-07T20:21:14.025Z,97.35
2018-11-07T20:23:43.017Z,97.29
2018-11-07T20:26:11.431Z,96.40
2018-11-07T20:28:39.772Z,96.73
2018-11-07T20:31:08.708Z,97.07
2018-11-07T20:33:37.996Z,97.20
2018-11-07T20:36:07.124Z,96.05
2018-11-07T20:38:36.251Z,96.50
2018-11-07T20:41:04.695Z,96.70
2018-11-07T20:43:34.085Z,96.68
2018-11-07T20:46:02.516Z,96.67
2018-11-07T20:48:32.276Z,96.98
2018-11-07T20:51:00.656Z,97.39
2018-11-07T20:53:29.221Z,97.04
2018-11-07T20:55:57.558Z,97.05
2018-11-07T20:58:26.028Z,96.46
2018-11-07T21:00:54.679Z,95.61
2018-11-07T21:03:23.353Z,96.18
2018-11-07T21:05:51.699Z,95.24
2018-11-07T21:08:20.030Z,95.43
2018-11-07T21:10:49.072Z,96.29
2018-11-07T21:13:17.406Z,95.60
2018-11-07T21:15:46.070Z,95.68
2018-11-07T21:18:14.404Z,97.31
2018-11-07T21:20:42.763Z,97.81
2018-11-07T21:23:11.904Z,97.54
2018-11-07T21:25:41.164Z,97.81
2018-11-07T21:28:09.475Z,97.05
2018-11-07T21:30:37.888Z,96.39
2018-11-07T21:33:07.198Z,96.79
2018-11-07T21:35:35.523Z,97.23
2018-11-07T21:38:03.807Z,97.89
2018-11-07T21:40:32.118Z,97.39
2018-11-07T21:43:00.551Z,96.50
2018-11-07T21:45:28.827Z,96.99
2018-11-07T21:47:57.121Z,96.78
2018-11-07T21:50:25.480Z,97.28
2018-11-07T21:52:53.787Z,96.40
2018-11-07T21:55:22.123Z,97.11
2018-11-07T21:57:50.499Z,96.14
2018-11-07T22:00:19.818Z,96.56
2018-11-07T22:02:48.235Z,96.72
2018-11-07T22:05:17.411Z,95.93
2018-11-07T22:07:45.854Z,96.31
2018-11-07T22:10:15.437Z,96.65
2018-11-07T22:12:43.805Z,96.80
2018-11-07T22:15:12.239Z,96.30
2018-11-07T22:17:40.714Z,96.25
2018-11-07T22:20:12.986Z,96.39
2018-11-07T22:22:41.273Z,96.46
2018-11-07T22:25:09.652Z,96.57
2018-11-07T22:27:37.997Z,96.36
2018-11-07T22:30:08.018Z,96.80
2018-11-07T22:32:36.566Z,97.25
2018-11-07T22:35:05.247Z,97.70
2018-11-07T22:37:33.610Z,96.96
2018-11-07T22:40:01.934Z,97.10
2018-11-07T22:42:30.261Z,96.67
2018-11-07T22:44:58.668Z,96.13
2018-11-07T22:47:26.949Z,97.50
2018-11-07T22:49:55.271Z,97.58
2018-11-07T22:52:23.572Z,98.01
2018-11-07T22:54:51.875Z,97.62
2018-11-07T22:57:20.195Z,97.50
2018-11-07T22:59:48.549Z,97.79
2018-11-07T23:02:18.203Z,97.83
2018-11-07T23:04:46.700Z,97.58
2018-11-07T23:07:15.476Z,97.29
2018-11-07T23:09:43.959Z,97.27
2018-11-07T23:12:12.304Z,96.88
2018-11-07T23:14:40.688Z,96.65
2018-11-07T23:17:08.989Z,96.73
2018-11-07T23:19:37.339Z,96.47
2018-11-07T23:22:05.981Z,96.72
2018-11-07T23:24:34.347Z,96.79
2018-11-07T23:27:02.667Z,96.78
2018-11-07T23:29:30.990Z,96.28
2018-11-07T23:31:59.319Z,96.89
2018-11-07T23:34:27.584Z,97.09
2018-11-07T23:36:55.884Z,97.38
2018-11-07T23:39:24.164Z,97.75
2018-11-07T23:41:52.514Z,97.47
2018-11-07T23:44:20.891Z,98.14
2018-11-07T23:46:49.235Z,98.51
2018-11-07T23:49:17.538Z,98.69
2018-11-07T23:51:49.947Z,98.97
2018-11-07T23:54:19.902Z,97.99
2018-11-07T23:56:48.510Z,98.40
2018-11-07T23:59:16.831Z,98.12
